createdAt,value
2018-11-28T00:01:11.171Z,27.27
2018-11-28T00:02:45.360Z,27.30
2018-11-28T00:04:19.517Z,29.12
2018-11-28T00:05:53.664Z,27.37
2018-11-28T00:07:27.851Z,24.85
2018-11-28T00:09:02.044Z,27.02
2018-11-28T00:10:36.176Z,26.77
2018-11-28T00:12:10.343Z,25.70
2018-11-28T00:13:44.450Z,27.50
2018-11-28T00:15:18.641Z,26.12
2018-11-28T00:16:52.753Z,26.65
2018-11-28T00:18:33.419Z,26.30
2018-11-28T00:20:16.791Z,25.48
2018-11-28T00:21:50.896Z,25.50
2018-11-28T00:23:25.016Z,24.85
2018-11-28T00:24:59.143Z,25.92
2018-11-28T00:26:33.327Z,25.55
2018-11-28T00:28:07.474Z,25.40
2018-11-28T00:29:41.603Z,25.52
2018-11-28T00:31:15.769Z,26.25
2018-11-28T00:32:49.912Z,24.77
2018-11-28T00:34:24.068Z,25.25
2018-11-28T00:35:58.631Z,25.27
2018-11-28T00:37:32.832Z,25.55
2018-11-28T00:39:08.851Z,24.92
2018-11-28T00:40:42.965Z,25.43
2018-11-28T00:42:17.092Z,25.68
2018-11-28T00:43:51.129Z,25.25
2018-11-28T00:45:25.661Z,25.95
2018-11-28T00:46:59.597Z,24.95
2018-11-28T00:48:33.561Z,23.98
2018-11-28T00:50:10.002Z,25.50
2018-11-28T00:51:43.944Z,25.62
2018-11-28T00:53:18.317Z,25.32
2018-11-28T00:54:52.265Z,25.75
2018-11-28T00:56:26.305Z,24.65
2018-11-28T00:58:00.287Z,23.20
2018-11-28T00:59:34.244Z,23.90
2018-11-28T01:01:08.253Z,25.40
2018-11-28T01:02:42.293Z,23.65
2018-11-28T01:04:16.241Z,25.00
2018-11-28T01:05:50.225Z,23.42
2018-11-28T01:07:24.183Z,22.98
2018-11-28T01:08:59.346Z,24.50
2018-11-28T01:10:34.062Z,25.65
2018-11-28T01:12:08.050Z,23.65
2018-11-28T01:13:42.066Z,23.67
2018-11-28T01:15:16.923Z,22.42
2018-11-28T01:16:50.893Z,25.12
2018-11-28T01:18:24.885Z,25.27
2018-11-28T01:19:58.830Z,25.55
2018-11-28T01:21:32.766Z,24.80
2018-11-28T01:23:06.797Z,24.52
2018-11-28T01:24:40.763Z,23.27
2018-11-28T01:26:14.713Z,23.70
2018-11-28T01:27:48.736Z,25.32
2018-11-28T01:29:22.679Z,22.73
2018-11-28T01:30:56.706Z,24.80
2018-11-28T01:32:31.034Z,24.92
2018-11-28T01:34:04.967Z,25.90
2018-11-28T01:35:38.923Z,25.25
2018-11-28T01:37:12.980Z,24.43
2018-11-28T01:38:46.929Z,23.62
2018-11-28T01:40:22.284Z,25.48
2018-11-28T01:41:56.241Z,24.63
2018-11-28T01:43:30.257Z,25.40
2018-11-28T01:45:04.274Z,24.05
2018-11-28T01:46:38.199Z,24.60
2018-11-28T01:48:12.130Z,24.32
2018-11-28T01:49:46.095Z,24.12
2018-11-28T01:51:20.030Z,23.75
2018-11-28T01:52:53.977Z,23.55
2018-11-28T01:54:27.943Z,24.32
2018-11-28T01:56:01.930Z,22.45
2018-11-28T01:57:35.898Z,23.55
2018-11-28T01:59:09.827Z,21.73
2018-11-28T02:00:43.763Z,22.13
2018-11-28T02:02:17.770Z,21.80
2018-11-28T02:03:51.823Z,23.85
2018-11-28T02:05:25.804Z,22.10
2018-11-28T02:06:59.745Z,21.05
2018-11-28T02:08:33.763Z,22.50
2018-11-28T02:10:11.889Z,21.95
2018-11-28T02:11:45.833Z,22.65
2018-11-28T02:13:19.779Z,21.77
2018-11-28T02:14:53.797Z,22.80
2018-11-28T02:16:27.718Z,22.30
2018-11-28T02:18:01.653Z,22.17
2018-11-28T02:19:35.610Z,23.05
2018-11-28T02:21:09.657Z,21.75
2018-11-28T02:22:43.658Z,20.45
2018-11-28T02:24:17.683Z,21.12
2018-11-28T02:25:51.621Z,23.02
2018-11-28T02:27:25.617Z,21.02
2018-11-28T02:28:59.573Z,20.90
2018-11-28T02:30:33.497Z,20.52
2018-11-28T02:32:07.421Z,20.45
2018-11-28T02:33:41.446Z,22.10
2018-11-28T02:35:15.969Z,20.50
2018-11-28T02:36:52.875Z,21.42
2018-11-28T02:38:26.839Z,20.75
2018-11-28T02:40:00.870Z,20.37
2018-11-28T02:41:34.866Z,21.85
2018-11-28T02:43:08.866Z,21.12
2018-11-28T02:44:42.934Z,20.55
2018-11-28T02:46:30.013Z,19.77
2018-11-28T02:48:04.086Z,19.65
2018-11-28T02:49:38.033Z,19.30
2018-11-28T02:51:12.124Z,19.37
2018-11-28T02:52:46.160Z,20.08
2018-11-28T02:54:20.206Z,19.07
2018-11-28T02:55:54.167Z,19.85
2018-11-28T02:57:28.142Z,19.50
2018-11-28T02:59:02.090Z,20.37
2018-11-28T03:00:36.117Z,20.08
2018-11-28T03:02:10.049Z,19.73
2018-11-28T03:03:43.984Z,19.42
2018-11-28T03:05:18.001Z,19.50
2018-11-28T03:06:52.071Z,19.00
2018-11-28T03:08:26.025Z,20.20
2018-11-28T03:10:09.762Z,19.82
2018-11-28T03:11:43.639Z,20.30
2018-11-28T03:13:17.810Z,19.07
2018-11-28T03:14:51.786Z,20.30
2018-11-28T03:16:29.039Z,21.05
2018-11-28T03:18:03.034Z,21.05
2018-11-28T03:19:37.019Z,20.57
2018-11-28T03:21:10.909Z,21.75
2018-11-28T03:22:45.286Z,21.20
2018-11-28T03:24:19.958Z,23.00
2018-11-28T03:25:57.785Z,22.55
2018-11-28T03:27:31.790Z,22.37
2018-11-28T03:29:05.863Z,22.07
2018-11-28T03:30:40.027Z,20.20
2018-11-28T03:32:14.075Z,20.80
2018-11-28T03:33:48.048Z,20.00
2018-11-28T03:35:22.077Z,21.07
2018-11-28T03:36:56.014Z,19.70
2018-11-28T03:38:30.071Z,20.70
2018-11-28T03:40:04.021Z,19.23
2018-11-28T03:41:37.991Z,19.80
2018-11-28T03:43:11.954Z,20.97
2018-11-28T03:44:46.055Z,20.37
2018-11-28T03:46:20.131Z,20.27
2018-11-28T03:47:54.081Z,20.95
2018-11-28T03:49:28.719Z,21.48
2018-11-28T03:51:02.819Z,20.45
2018-11-28T03:52:36.835Z,21.05
2018-11-28T03:54:10.953Z,19.98
2018-11-28T03:55:44.958Z,20.08
2018-11-28T03:57:19.854Z,20.88
2018-11-28T03:58:55.409Z,19.95
2018-11-28T04:00:29.382Z,19.12
2018-11-28T04:02:03.381Z,18.75
2018-11-28T04:03:37.427Z,17.75
2018-11-28T04:05:11.965Z,19.02
2018-11-28T04:06:46.038Z,18.60
2018-11-28T04:08:20.080Z,19.25
2018-11-28T04:09:54.138Z,19.37
2018-11-28T04:11:28.227Z,18.98
2018-11-28T04:13:02.174Z,19.52
2018-11-28T04:14:36.182Z,20.55
2018-11-28T04:16:10.310Z,19.87
2018-11-28T04:17:44.385Z,18.62
2018-11-28T04:19:18.622Z,18.80
2018-11-28T04:20:52.802Z,18.90
2018-11-28T04:22:26.859Z,17.73
2018-11-28T04:24:00.970Z,19.30
2018-11-28T04:25:35.579Z,18.10
2018-11-28T04:27:09.594Z,18.57
2018-11-28T04:28:43.606Z,18.70
2018-11-28T04:30:19.498Z,17.57
2018-11-28T04:31:53.474Z,18.45
2018-11-28T04:33:27.442Z,18.67
2018-11-28T04:35:01.487Z,18.80
2018-11-28T04:36:35.485Z,17.67
2018-11-28T04:38:09.448Z,18.27
2018-11-28T04:39:43.679Z,18.30
2018-11-28T04:41:17.686Z,17.27
2018-11-28T04:42:51.986Z,18.35
2018-11-28T04:44:25.979Z,18.23
2018-11-28T04:45:59.981Z,17.90
2018-11-28T04:47:34.005Z,17.70
2018-11-28T04:49:07.975Z,16.60
2018-11-28T04:50:41.981Z,17.32
2018-11-28T04:52:16.769Z,17.98
2018-11-28T04:53:50.807Z,16.70
2018-11-28T04:55:24.780Z,16.85
2018-11-28T04:56:58.758Z,16.40
2018-11-28T04:58:32.781Z,16.55
2018-11-28T05:00:10.147Z,16.45
2018-11-28T05:01:44.171Z,17.40
2018-11-28T05:03:18.170Z,16.67
2018-11-28T05:04:52.110Z,17.40
2018-11-28T05:07:33.299Z,16.00
2018-11-28T05:09:07.431Z,16.00
2018-11-28T05:10:41.482Z,17.02
2018-11-28T05:12:15.611Z,18.30
2018-11-28T05:13:49.559Z,17.62
2018-11-28T05:15:25.662Z,16.62
2018-11-28T05:16:59.703Z,17.35
2018-11-28T05:18:33.662Z,17.67
2018-11-28T05:20:10.250Z,18.23
2018-11-28T05:21:44.439Z,16.77
2018-11-28T05:23:18.387Z,18.35
2018-11-28T05:24:52.324Z,19.25
2018-11-28T05:26:26.550Z,17.45
2018-11-28T05:28:00.570Z,19.25
2018-11-28T05:29:34.558Z,16.62
2018-11-28T05:31:08.473Z,16.45
2018-11-28T05:32:42.529Z,18.35
2018-11-28T05:34:16.535Z,16.48
2018-11-28T05:35:50.451Z,17.37
2018-11-28T05:37:24.383Z,15.88
2018-11-28T05:38:58.402Z,16.35
2018-11-28T05:40:32.349Z,17.02
2018-11-28T05:42:06.454Z,17.17
2018-11-28T05:43:40.435Z,15.55
2018-11-28T05:45:14.442Z,15.53
2018-11-28T05:46:48.419Z,15.72
2018-11-28T05:48:22.425Z,16.10
2018-11-28T05:49:56.362Z,16.75
2018-11-28T05:51:30.348Z,17.48
2018-11-28T05:53:04.358Z,18.40
2018-11-28T05:54:38.349Z,18.82
2018-11-28T05:56:12.420Z,17.48
2018-11-28T05:57:46.465Z,16.82
2018-11-28T05:59:20.394Z,17.70
2018-11-28T06:00:54.355Z,16.25
2018-11-28T06:02:29.004Z,18.23
2018-11-28T06:04:03.060Z,16.77
2018-11-28T06:05:37.161Z,18.25
2018-11-28T06:07:11.118Z,16.50
2018-11-28T06:08:45.171Z,17.48
2018-11-28T06:10:19.142Z,16.02
2018-11-28T06:11:53.124Z,17.62
2018-11-28T06:13:27.099Z,16.82
2018-11-28T06:15:01.130Z,16.32
2018-11-28T06:16:35.238Z,16.23
2018-11-28T06:18:09.843Z,16.52
2018-11-28T06:19:43.834Z,16.62
2018-11-28T06:21:17.871Z,15.65
2018-11-28T06:22:51.853Z,15.95
2018-11-28T06:24:25.831Z,16.97
2018-11-28T06:25:59.771Z,16.57
2018-11-28T06:27:33.781Z,15.30
2018-11-28T06:29:08.107Z,16.45
2018-11-28T06:30:42.100Z,16.20
2018-11-28T06:32:16.031Z,15.98
2018-11-28T06:33:49.996Z,16.10
2018-11-28T06:35:23.969Z,16.10
2018-11-28T06:36:58.025Z,14.78
2018-11-28T06:38:31.950Z,15.05
2018-11-28T06:40:10.786Z,17.23
2018-11-28T06:41:44.857Z,15.95
2018-11-28T06:43:18.911Z,15.83
2018-11-28T06:44:52.898Z,16.20
2018-11-28T06:46:26.854Z,15.85
2018-11-28T06:48:00.802Z,17.12
2018-11-28T06:49:34.857Z,18.60
2018-11-28T06:51:08.821Z,17.50
2018-11-28T06:52:43.217Z,15.58
2018-11-28T06:54:17.160Z,16.70
2018-11-28T06:55:51.214Z,16.65
2018-11-28T06:57:25.212Z,16.80
2018-11-28T06:58:59.128Z,17.82
2018-11-28T07:00:33.097Z,17.00
2018-11-28T07:02:07.094Z,16.87
2018-11-28T07:03:41.060Z,18.60
2018-11-28T07:05:15.066Z,18.42
2018-11-28T07:06:49.016Z,19.45
2018-11-28T07:08:23.123Z,17.87
2018-11-28T07:09:57.101Z,18.20
2018-11-28T07:11:31.101Z,18.45
2018-11-28T07:13:15.310Z,19.75
2018-11-28T07:14:51.322Z,18.73
2018-11-28T07:16:25.707Z,18.60
2018-11-28T07:18:11.060Z,17.75
2018-11-28T07:19:45.433Z,20.32
2018-11-28T07:21:19.879Z,20.10
2018-11-28T07:22:54.204Z,20.97
2018-11-28T07:24:28.594Z,19.70
2018-11-28T07:26:02.878Z,20.52
2018-11-28T07:27:37.296Z,22.50
2018-11-28T07:31:28.048Z,21.20
2018-11-28T07:33:02.613Z,21.45
2018-11-28T07:34:37.114Z,22.10
2018-11-28T07:36:11.431Z,22.25
2018-11-28T07:37:45.760Z,22.67
2018-11-28T07:39:26.710Z,21.12
2018-11-28T07:41:01.068Z,21.48
2018-11-28T07:42:35.377Z,21.50
2018-11-28T07:44:09.767Z,19.48
2018-11-28T07:45:48.476Z,19.32
2018-11-28T07:47:23.033Z,19.30
2018-11-28T07:48:57.434Z,19.87
2018-11-28T07:50:31.915Z,18.75
2018-11-28T07:52:06.318Z,20.12
2018-11-28T07:53:40.858Z,21.45
2018-11-28T07:55:15.316Z,19.35
2018-11-28T07:56:49.694Z,20.43
2018-11-28T07:58:24.130Z,19.65
2018-11-28T07:59:58.689Z,19.75
2018-11-28T08:01:39.232Z,19.67
2018-11-28T08:03:13.806Z,19.52
2018-11-28T08:04:49.101Z,18.48
2018-11-28T08:06:23.462Z,18.98
2018-11-28T08:07:57.727Z,19.17
2018-11-28T08:09:32.151Z,19.23
2018-11-28T08:11:07.452Z,19.52
2018-11-28T08:12:41.814Z,20.05
2018-11-28T08:14:16.527Z,19.62
2018-11-28T08:15:50.816Z,19.17
2018-11-28T08:17:25.147Z,20.15
2018-11-28T08:19:05.851Z,19.70
2018-11-28T08:20:43.335Z,21.15
2018-11-28T08:22:17.723Z,20.50
2018-11-28T08:23:52.102Z,21.68
2018-11-28T08:25:27.961Z,21.12
2018-11-28T08:27:01.107Z,21.90
2018-11-28T08:28:36.144Z,19.90
2018-11-28T08:30:15.368Z,20.55
2018-11-28T08:31:49.634Z,21.40
2018-11-28T08:33:23.973Z,20.30
2018-11-28T08:34:58.193Z,20.60
2018-11-28T08:36:32.407Z,20.85
2018-11-28T08:38:07.040Z,20.57
2018-11-28T08:39:41.489Z,20.88
2018-11-28T08:41:15.714Z,20.43
2018-11-28T08:42:49.929Z,20.82
2018-11-28T08:44:24.211Z,21.30
2018-11-28T08:45:58.376Z,22.75
2018-11-28T08:47:32.542Z,21.10
2018-11-28T08:49:07.058Z,22.93
2018-11-28T08:50:42.744Z,20.57
2018-11-28T08:52:16.892Z,22.37
2018-11-28T08:53:51.029Z,23.07
2018-11-28T08:55:25.823Z,22.87
2018-11-28T08:56:59.960Z,23.18
2018-11-28T08:58:34.135Z,22.95
2018-11-28T09:00:14.759Z,22.37
2018-11-28T09:01:56.535Z,23.50
2018-11-28T09:03:39.727Z,22.98
2018-11-28T09:05:27.703Z,23.30
2018-11-28T09:07:08.354Z,21.27
2018-11-28T09:08:46.645Z,22.07
2018-11-28T09:10:28.964Z,22.27
2018-11-28T09:12:09.506Z,21.57
2018-11-28T09:13:54.825Z,20.85
2018-11-28T09:15:35.724Z,21.62
2018-11-28T09:17:15.183Z,23.95
2018-11-28T09:18:47.356Z,21.68
2018-11-28T09:20:23.400Z,20.70
2018-11-28T09:22:05.426Z,22.50
2018-11-28T09:25:41.611Z,21.50
2018-11-28T09:27:23.628Z,23.22
2018-11-28T09:29:01.968Z,22.05
2018-11-28T09:30:39.850Z,21.65
2018-11-28T09:32:16.978Z,20.88
2018-11-28T09:33:51.131Z,23.62
2018-11-28T09:35:25.124Z,22.42
2018-11-28T09:36:59.103Z,23.15
2018-11-28T09:38:33.213Z,21.70
2018-11-28T09:40:23.057Z,22.40
2018-11-28T09:41:57.069Z,22.42
2018-11-28T09:43:31.059Z,22.45
2018-11-28T09:45:05.162Z,21.23
2018-11-28T09:46:39.155Z,22.15
2018-11-28T09:48:13.132Z,24.02
2018-11-28T09:49:47.145Z,22.85
2018-11-28T09:51:21.217Z,22.15
2018-11-28T09:52:55.277Z,22.07
2018-11-28T09:54:29.335Z,22.98
2018-11-28T09:56:03.396Z,20.60
2018-11-28T09:57:37.450Z,21.57
2018-11-28T09:59:11.442Z,22.00
2018-11-28T10:00:45.444Z,20.00
2018-11-28T10:02:19.459Z,22.60
2018-11-28T10:03:53.531Z,20.27
2018-11-28T10:05:32.784Z,21.02
2018-11-28T10:07:07.008Z,20.95
2018-11-28T10:08:40.999Z,19.65
2018-11-28T10:10:15.238Z,21.00
2018-11-28T10:11:49.202Z,20.75
2018-11-28T10:13:23.237Z,19.82
2018-11-28T10:14:57.272Z,20.05
2018-11-28T10:16:31.323Z,18.45
2018-11-28T10:18:05.467Z,21.37
2018-11-28T10:19:39.448Z,21.33
2018-11-28T10:21:13.472Z,18.40
2018-11-28T10:22:48.089Z,21.90
2018-11-28T10:24:22.115Z,21.65
2018-11-28T10:25:56.155Z,21.12
2018-11-28T10:27:30.175Z,20.95
2018-11-28T10:29:04.227Z,20.37
2018-11-28T10:30:39.725Z,20.72
2018-11-28T10:32:13.727Z,21.55
2018-11-28T10:33:47.730Z,20.45
2018-11-28T10:35:21.790Z,19.07
2018-11-28T10:36:55.756Z,19.62
2018-11-28T10:38:29.803Z,19.45
2018-11-28T10:40:03.826Z,19.37
2018-11-28T10:41:37.814Z,19.05
2018-11-28T10:43:11.914Z,19.23
2018-11-28T10:44:46.011Z,18.00
2018-11-28T10:46:19.976Z,17.48
2018-11-28T10:47:53.936Z,18.12
2018-11-28T10:49:27.921Z,18.00
2018-11-28T10:51:01.952Z,17.02
2018-11-28T10:52:35.964Z,16.52
2018-11-28T10:54:09.918Z,17.92
2018-11-28T10:55:43.914Z,16.12
2018-11-28T10:57:17.938Z,17.07
2018-11-28T10:58:51.951Z,16.70
2018-11-28T11:00:32.183Z,16.67
2018-11-28T11:02:11.547Z,17.62
2018-11-28T11:03:55.412Z,17.10
2018-11-28T11:05:34.587Z,17.15
2018-11-28T11:07:13.751Z,17.23
2018-11-28T11:08:53.005Z,18.20
2018-11-28T11:10:32.006Z,16.87
2018-11-28T11:12:07.463Z,18.37
2018-11-28T11:13:41.862Z,16.48
2018-11-28T11:15:15.843Z,17.05
2018-11-28T11:16:49.935Z,16.95
2018-11-28T11:18:23.996Z,17.67
2018-11-28T11:19:58.100Z,15.38
2018-11-28T11:21:32.079Z,11.83
2018-11-28T11:23:08.359Z,10.15
2018-11-28T11:24:41.367Z,11.15
2018-11-28T11:26:15.395Z,12.58
2018-11-28T11:27:49.399Z,11.22
2018-11-28T11:29:24.391Z,10.72
2018-11-28T11:30:58.436Z,10.18
2018-11-28T11:32:32.509Z,11.48
2018-11-28T11:34:07.095Z,10.48
2018-11-28T11:35:47.563Z,9.78
2018-11-28T11:37:21.604Z,9.83
2018-11-28T11:38:55.655Z,10.60
2018-11-28T11:40:29.685Z,10.25
2018-11-28T11:42:03.679Z,10.80
2018-11-28T11:43:37.714Z,10.80
2018-11-28T11:45:13.210Z,10.20
2018-11-28T11:46:48.076Z,9.23
2018-11-28T11:48:21.319Z,11.10
2018-11-28T11:49:55.343Z,10.15
2018-11-28T11:51:29.409Z,10.63
2018-11-28T11:53:03.410Z,10.48
2018-11-28T11:54:37.400Z,10.98
2018-11-28T11:56:11.384Z,10.20
2018-11-28T11:57:45.444Z,10.00
2018-11-28T11:59:19.407Z,11.18
2018-11-28T12:00:53.526Z,11.20
2018-11-28T12:02:27.531Z,10.75
2018-11-28T12:04:01.640Z,11.35
2018-11-28T12:05:35.802Z,10.20
2018-11-28T12:07:09.766Z,10.15
2018-11-28T12:08:43.791Z,10.85
2018-11-28T12:10:17.867Z,9.78
2018-11-28T12:11:51.875Z,10.78
2018-11-28T12:13:25.866Z,9.20
2018-11-28T12:14:59.864Z,10.43
2018-11-28T12:16:33.872Z,10.28
2018-11-28T12:18:07.928Z,9.78
2018-11-28T12:19:41.916Z,10.88
2018-11-28T12:21:15.927Z,10.00
2018-11-28T12:22:49.967Z,9.28
2018-11-28T12:24:23.934Z,10.65
2018-11-28T12:25:57.954Z,10.05
2018-11-28T12:27:31.939Z,9.60
2018-11-28T12:29:06.602Z,8.80
2018-11-28T12:30:40.616Z,9.35
2018-11-28T12:32:14.624Z,9.40
2018-11-28T12:33:48.599Z,9.98
2018-11-28T12:35:22.731Z,9.33
2018-11-28T12:36:56.723Z,10.08
2018-11-28T12:38:30.694Z,9.68
2018-11-28T12:40:05.755Z,9.88
2018-11-28T12:41:39.811Z,9.60
2018-11-28T12:43:13.834Z,9.73
2018-11-28T12:44:47.839Z,8.08
2018-11-28T12:46:21.883Z,9.28
2018-11-28T12:47:55.945Z,8.40
2018-11-28T12:49:29.894Z,9.08
2018-11-28T12:51:03.893Z,9.68
2018-11-28T12:52:37.874Z,9.00
2018-11-28T12:54:11.898Z,8.25
2018-11-28T12:55:46.064Z,9.13
2018-11-28T12:57:22.901Z,8.73
2018-11-28T12:59:08.290Z,9.30
2018-11-28T13:01:00.615Z,8.38
2018-11-28T13:02:38.410Z,8.83
2018-11-28T13:04:31.097Z,9.15
2018-11-28T13:08:08.439Z,9.13
2018-11-28T13:09:56.403Z,9.63
2018-11-28T13:11:38.790Z,9.93
2018-11-28T13:13:13.197Z,8.65
2018-11-28T13:14:47.294Z,8.28
2018-11-28T13:16:21.255Z,9.95
2018-11-28T13:17:55.372Z,10.65
2018-11-28T13:19:29.510Z,10.00
2018-11-28T13:21:03.705Z,9.43
2018-11-28T13:22:41.708Z,10.55
2018-11-28T13:24:16.052Z,9.70
2018-11-28T13:25:50.288Z,11.30
2018-11-28T13:27:24.547Z,11.05
2018-11-28T13:28:58.690Z,11.00
2018-11-28T13:30:33.121Z,11.18
2018-11-28T13:32:07.901Z,9.93
2018-11-28T13:33:41.579Z,9.75
2018-11-28T13:35:20.565Z,9.73
2018-11-28T13:36:54.702Z,10.53
2018-11-28T13:38:28.762Z,10.85
2018-11-28T13:40:02.793Z,10.35
2018-11-28T13:41:37.066Z,11.43
2018-11-28T13:43:11.240Z,10.68
2018-11-28T13:44:45.266Z,10.88
2018-11-28T13:46:25.229Z,10.38
2018-11-28T13:47:59.530Z,11.10
2018-11-28T13:49:33.780Z,10.50
2018-11-28T13:51:16.919Z,10.80
2018-11-28T14:05:38.720Z,8.53
2018-11-28T14:07:12.964Z,10.55
2018-11-28T14:08:47.046Z,10.48
2018-11-28T14:10:22.112Z,10.60
2018-11-28T14:11:56.339Z,10.55
2018-11-28T14:13:33.215Z,10.82
2018-11-28T14:15:17.002Z,11.68
2018-11-28T14:16:51.083Z,9.60
2018-11-28T14:18:25.104Z,10.15
2018-11-28T14:19:59.054Z,10.28
2018-11-28T14:21:32.986Z,10.72
2018-11-28T14:23:06.951Z,10.72
2018-11-28T14:24:40.944Z,10.08
2018-11-28T14:26:14.969Z,11.25
2018-11-28T14:27:48.943Z,10.53
2018-11-28T14:29:22.877Z,9.80
2018-11-28T14:30:56.918Z,10.50
2018-11-28T14:32:31.000Z,10.65
2018-11-28T14:34:04.939Z,10.72
2018-11-28T14:36:41.956Z,10.25
2018-11-28T14:38:15.976Z,10.25
2018-11-28T14:39:52.870Z,10.68
2018-11-28T14:41:26.790Z,10.70
2018-11-28T14:43:00.869Z,11.75
2018-11-28T14:44:34.795Z,11.20
2018-11-28T14:46:08.741Z,11.25
2018-11-28T14:47:42.852Z,11.83
2018-11-28T14:49:16.872Z,11.15
2018-11-28T14:50:50.866Z,11.90
2018-11-28T14:52:24.846Z,11.97
2018-11-28T14:53:58.828Z,11.65
2018-11-28T14:55:37.181Z,12.05
2018-11-28T14:57:11.154Z,11.85
2018-11-28T14:58:45.134Z,10.85
2018-11-28T15:00:22.301Z,11.65
2018-11-28T15:01:56.514Z,11.97
2018-11-28T15:03:30.422Z,11.12
2018-11-28T15:05:04.589Z,12.10
2018-11-28T15:06:46.211Z,12.13
2018-11-28T15:08:20.270Z,12.40
2018-11-28T15:10:00.405Z,11.68
2018-11-28T15:11:34.379Z,13.32
2018-11-28T15:13:08.276Z,13.22
2018-11-28T15:14:42.241Z,13.70
2018-11-28T15:16:16.146Z,13.45
2018-11-28T15:17:50.093Z,12.35
2018-11-28T15:19:24.047Z,13.55
2018-11-28T15:20:58.074Z,13.15
2018-11-28T15:22:31.967Z,13.35
2018-11-28T15:24:06.158Z,13.70
2018-11-28T15:25:40.059Z,13.15
2018-11-28T15:27:14.034Z,14.58
2018-11-28T15:28:47.949Z,14.90
2018-11-28T15:30:21.838Z,14.25
2018-11-28T15:31:55.756Z,14.18
2018-11-28T15:33:29.721Z,14.13
2018-11-28T15:35:03.671Z,13.58
2018-11-28T15:36:37.570Z,13.25
2018-11-28T15:38:11.497Z,14.58
2018-11-28T15:39:45.465Z,14.33
2018-11-28T15:41:19.564Z,15.13
2018-11-28T15:42:53.627Z,13.95
2018-11-28T15:44:27.575Z,13.93
2018-11-28T15:46:01.514Z,14.23
2018-11-28T15:47:35.555Z,15.00
2018-11-28T15:49:09.655Z,14.15
2018-11-28T15:50:44.480Z,14.15
2018-11-28T15:52:18.458Z,14.55
2018-11-28T15:53:52.418Z,15.13
2018-11-28T15:55:26.332Z,14.35
2018-11-28T15:57:00.235Z,14.95
2018-11-28T15:58:34.131Z,14.78
2018-11-28T16:00:13.969Z,13.88
2018-11-28T16:01:48.126Z,13.45
2018-11-28T16:03:21.881Z,13.22
2018-11-28T16:04:56.634Z,14.05
2018-11-28T16:06:31.505Z,13.65
2018-11-28T16:08:04.603Z,14.28
2018-11-28T16:09:43.803Z,15.00
2018-11-28T16:11:18.479Z,14.93
2018-11-28T16:12:52.526Z,14.78
2018-11-28T16:14:26.459Z,14.15
2018-11-28T16:16:00.401Z,13.72
2018-11-28T16:17:34.315Z,13.22
2018-11-28T16:19:08.299Z,13.95
2018-11-28T16:20:42.190Z,14.45
2018-11-28T16:22:16.140Z,14.43
2018-11-28T16:23:50.076Z,13.48
2018-11-28T16:25:24.063Z,13.05
2018-11-28T16:26:58.009Z,13.98
2018-11-28T16:28:31.926Z,13.20
2018-11-28T16:30:10.814Z,13.90
2018-11-28T16:31:44.812Z,13.53
2018-11-28T16:33:18.714Z,12.80
2018-11-28T16:34:52.608Z,13.40
2018-11-28T16:36:26.813Z,13.85
2018-11-28T16:38:00.824Z,13.35
2018-11-28T16:39:34.921Z,13.65
2018-11-28T16:41:09.208Z,13.43
2018-11-28T16:42:43.142Z,13.25
2018-11-28T16:44:17.201Z,13.03
2018-11-28T16:45:51.293Z,13.72
2018-11-28T16:47:25.510Z,13.75
2018-11-28T16:48:59.457Z,13.72
2018-11-28T16:50:33.498Z,12.68
2018-11-28T16:52:07.459Z,12.43
2018-11-28T16:53:41.429Z,13.20
2018-11-28T16:55:16.927Z,12.30
2018-11-28T16:56:50.905Z,12.55
2018-11-28T16:58:24.854Z,11.80
2018-11-28T16:59:58.815Z,12.93
2018-11-28T17:01:33.076Z,12.78
2018-11-28T17:03:07.229Z,12.88
2018-11-28T17:04:41.170Z,12.63
2018-11-28T17:06:15.239Z,12.37
2018-11-28T17:07:49.441Z,12.58
2018-11-28T17:09:23.486Z,12.60
2018-11-28T17:10:57.657Z,12.68
2018-11-28T17:12:31.977Z,12.35
2018-11-28T17:14:06.418Z,14.90
2018-11-28T17:15:40.487Z,12.13
2018-11-28T17:17:14.385Z,14.55
2018-11-28T17:18:48.342Z,13.20
2018-11-28T17:20:26.316Z,14.03
2018-11-28T17:22:00.299Z,13.58
2018-11-28T17:23:34.217Z,14.10
2018-11-28T17:25:13.246Z,13.50
2018-11-28T17:26:47.153Z,12.98
2018-11-28T17:28:21.156Z,13.32
2018-11-28T17:29:55.078Z,12.98
2018-11-28T17:31:28.990Z,12.40
2018-11-28T17:33:02.894Z,13.40
2018-11-28T17:34:37.123Z,12.80
2018-11-28T17:36:11.278Z,13.65
2018-11-28T17:37:45.468Z,13.38
2018-11-28T17:39:19.630Z,12.58
2018-11-28T17:40:53.644Z,14.40
2018-11-28T17:42:28.169Z,13.18
2018-11-28T17:44:02.120Z,14.05
2018-11-28T17:45:36.065Z,13.13
2018-11-28T17:47:10.165Z,13.48
2018-11-28T17:48:44.069Z,14.40
2018-11-28T17:50:21.579Z,14.80
2018-11-28T17:51:56.138Z,15.38
2018-11-28T17:53:30.774Z,15.53
2018-11-28T17:55:05.665Z,16.30
2018-11-28T17:56:39.678Z,16.50
2018-11-28T17:58:13.602Z,16.90
2018-11-28T17:59:47.598Z,16.62
2018-11-28T18:01:21.520Z,16.82
2018-11-28T18:02:55.452Z,16.77
2018-11-28T18:04:30.255Z,16.97
2018-11-28T18:06:03.536Z,18.45
2018-11-28T18:07:37.521Z,18.55
2018-11-28T18:09:12.091Z,18.23
2018-11-28T18:10:45.977Z,19.12
2018-11-28T18:12:20.365Z,18.75
2018-11-28T18:13:54.251Z,17.60
2018-11-28T18:15:28.466Z,18.75
2018-11-28T18:17:02.343Z,17.95
2018-11-28T18:18:36.330Z,19.50
2018-11-28T18:20:10.225Z,18.62
2018-11-28T18:21:44.142Z,19.55
2018-11-28T18:23:18.050Z,19.55
2018-11-28T18:24:52.030Z,19.35
2018-11-28T18:26:27.147Z,17.95
2018-11-28T18:28:01.058Z,18.85
2018-11-28T18:29:34.938Z,17.87
2018-11-28T18:31:08.928Z,18.82
2018-11-28T18:32:42.944Z,19.37
2018-11-28T18:34:17.082Z,18.48
2018-11-28T18:35:51.025Z,18.87
2018-11-28T18:37:25.018Z,19.30
2018-11-28T18:38:58.963Z,20.52
2018-11-28T18:40:32.921Z,20.20
2018-11-28T18:42:06.815Z,18.30
2018-11-28T18:43:40.777Z,20.60
2018-11-28T18:45:18.390Z,18.65
2018-11-28T18:46:51.898Z,19.35
2018-11-28T18:48:25.886Z,20.52
2018-11-28T18:49:59.821Z,19.57
2018-11-28T18:51:33.770Z,21.15
2018-11-28T18:53:07.883Z,18.92
2018-11-28T18:54:41.870Z,17.57
2018-11-28T18:56:15.795Z,20.00
2018-11-28T18:57:51.411Z,21.05
2018-11-28T18:59:25.412Z,18.70
2018-11-28T19:00:59.515Z,21.15
2018-11-28T19:02:34.391Z,19.70
2018-11-28T19:04:08.595Z,20.25
2018-11-28T19:05:43.016Z,20.02
2018-11-28T19:07:17.815Z,19.98
2018-11-28T19:08:51.943Z,20.72
2018-11-28T19:10:26.988Z,19.07
2018-11-28T19:12:00.282Z,19.20
2018-11-28T19:13:35.617Z,18.85
2018-11-28T19:15:12.923Z,19.62
2018-11-28T19:16:46.923Z,19.60
2018-11-28T19:18:20.988Z,18.50
2018-11-28T19:19:55.040Z,19.30
2018-11-28T19:21:31.694Z,19.05
2018-11-28T19:40:24.126Z,17.32
2018-11-28T19:41:58.472Z,15.68
2018-11-28T19:43:39.664Z,16.52
2018-11-28T19:45:27.265Z,16.15
2018-11-28T19:47:01.622Z,15.18
2018-11-28T19:48:35.892Z,15.20
2018-11-28T19:50:19.443Z,16.10
2018-11-28T19:52:23.524Z,15.63
2018-11-28T19:54:18.211Z,14.55
2018-11-28T19:55:58.272Z,15.45
2018-11-28T19:57:54.505Z,14.93
2018-11-28T19:59:36.223Z,14.40
2018-11-28T20:01:14.954Z,15.32
2018-11-28T20:02:55.822Z,15.25
2018-11-28T20:08:21.532Z,14.98
2018-11-28T20:10:02.387Z,14.07
2018-11-28T20:11:46.229Z,16.10
2018-11-28T20:13:23.658Z,15.63
2018-11-28T20:14:59.023Z,14.38
2018-11-28T20:16:42.442Z,15.68
2018-11-28T20:18:27.069Z,14.80
2018-11-28T20:20:02.985Z,16.00
2018-11-28T20:21:38.593Z,14.83
2018-11-28T20:23:19.900Z,15.90
2018-11-28T20:24:59.948Z,14.73
2018-11-28T20:26:43.267Z,16.15
2018-11-28T20:28:17.947Z,15.55
2018-11-28T20:29:52.239Z,16.40
2018-11-28T20:31:26.450Z,15.72
2018-11-28T20:33:00.753Z,16.87
2018-11-28T20:34:35.024Z,15.60
2018-11-28T20:36:09.242Z,16.70
2018-11-28T20:37:43.745Z,15.35
2018-11-28T20:39:18.180Z,16.37
2018-11-28T20:40:52.506Z,17.35
2018-11-28T20:42:26.787Z,18.07
2018-11-28T20:44:01.084Z,16.30
2018-11-28T20:45:35.459Z,18.67
2018-11-28T20:47:19.289Z,18.42
2018-11-28T20:48:56.624Z,19.25
2018-11-28T20:50:34.538Z,19.95
2018-11-28T20:52:09.819Z,20.12
2018-11-28T20:53:44.548Z,21.05
2018-11-28T20:55:48.761Z,20.72
2018-11-28T20:57:37.759Z,18.20
2018-11-28T20:59:30.056Z,21.02
2018-11-28T21:01:10.072Z,22.27
2018-11-28T21:02:54.711Z,21.25
2018-11-28T21:04:30.436Z,24.45
2018-11-28T21:06:20.871Z,24.37
2018-11-28T21:07:57.291Z,23.98
2018-11-28T21:09:43.508Z,24.25
2018-11-28T21:11:20.847Z,22.73